createdAt,value
2019-02-14T00:00:12.703Z,19.73
2019-02-14T00:02:41.198Z,18.80
2019-02-14T00:05:16.248Z,19.07
2019-02-14T00:07:40.175Z,18.53
2019-02-14T00:10:10.096Z,21.57
2019-02-14T00:12:38.566Z,18.03
2019-02-14T00:15:12.162Z,18.93
2019-02-14T00:17:40.704Z,18.07
2019-02-14T00:20:10.212Z,18.53
2019-02-14T00:22:58.105Z,18.50
2019-02-14T00:25:26.691Z,18.63
2019-02-14T00:27:56.725Z,18.70
2019-02-14T00:30:25.300Z,18.70
2019-02-14T00:32:53.798Z,18.27
2019-02-14T00:35:25.150Z,17.80
2019-02-14T00:37:52.527Z,17.93
2019-02-14T00:40:21.099Z,17.57
2019-02-14T00:42:49.641Z,17.67
2019-02-14T00:45:37.572Z,19.40
2019-02-14T00:48:06.080Z,17.70
2019-02-14T00:50:34.552Z,17.47
2019-02-14T00:53:03.110Z,18.27
2019-02-14T00:55:31.575Z,16.97
2019-02-14T00:58:00.199Z,16.30
2019-02-14T01:00:28.720Z,17.57
2019-02-14T01:02:57.181Z,17.50
2019-02-14T01:05:33.276Z,18.03
2019-02-14T01:07:56.193Z,16.67
2019-02-14T01:10:24.737Z,15.80
2019-02-14T01:12:53.375Z,18.17
2019-02-14T01:15:23.586Z,17.53
2019-02-14T01:17:52.209Z,16.93
2019-02-14T01:20:20.708Z,18.83
2019-02-14T01:22:49.189Z,18.23
2019-02-14T01:25:17.678Z,17.00
2019-02-14T01:27:46.426Z,17.07
2019-02-14T01:30:15.377Z,18.63
2019-02-14T01:32:43.853Z,17.20
2019-02-14T01:35:12.700Z,19.03
2019-02-14T01:37:41.339Z,18.67
2019-02-14T01:40:09.801Z,19.10
2019-02-14T01:42:41.361Z,17.70
2019-02-14T01:45:11.425Z,18.43
2019-02-14T01:47:39.919Z,17.53
2019-02-14T01:50:10.904Z,17.70
2019-02-14T01:52:39.373Z,18.10
2019-02-14T01:55:07.936Z,17.07
2019-02-14T01:57:36.424Z,17.70
2019-02-14T02:00:08.255Z,17.40
2019-02-14T02:02:36.761Z,17.53
2019-02-14T02:05:05.799Z,18.17
2019-02-14T02:07:53.753Z,16.73
2019-02-14T02:10:22.269Z,16.50
2019-02-14T02:12:50.758Z,17.50
2019-02-14T02:15:19.339Z,16.80
2019-02-14T02:17:47.824Z,16.87
2019-02-14T02:20:17.280Z,16.50
2019-02-14T02:22:45.894Z,16.17
2019-02-14T02:25:14.445Z,16.50
2019-02-14T02:27:42.908Z,15.67
2019-02-14T02:30:15.560Z,16.60
2019-02-14T02:32:44.020Z,16.77
2019-02-14T02:35:13.122Z,16.53
2019-02-14T02:37:41.626Z,16.47
2019-02-14T02:40:10.237Z,17.60
2019-02-14T02:42:38.774Z,19.57
2019-02-14T02:45:12.316Z,17.40
2019-02-14T02:47:40.846Z,16.83
2019-02-14T02:50:11.856Z,16.00
2019-02-14T02:52:40.429Z,17.53
2019-02-14T02:55:10.375Z,17.53
2019-02-14T02:57:38.913Z,16.73
2019-02-14T03:00:10.816Z,16.43
2019-02-14T03:02:39.285Z,17.70
2019-02-14T03:05:10.391Z,17.23
2019-02-14T03:07:38.879Z,17.10
2019-02-14T03:10:10.189Z,18.37
2019-02-14T03:12:38.864Z,18.13
2019-02-14T03:15:10.265Z,17.53
2019-02-14T03:17:38.857Z,17.47
2019-02-14T03:20:10.276Z,15.70
2019-02-14T03:22:38.760Z,16.93
2019-02-14T03:25:16.135Z,15.60
2019-02-14T03:27:44.741Z,16.13
2019-02-14T03:30:15.406Z,16.13
2019-02-14T03:32:44.008Z,16.40
2019-02-14T03:35:12.564Z,16.17
2019-02-14T03:37:41.029Z,16.60
2019-02-14T03:40:11.643Z,16.17
2019-02-14T03:42:40.216Z,17.20
2019-02-14T03:45:14.379Z,14.97
2019-02-14T03:47:42.956Z,17.77
2019-02-14T03:50:12.628Z,16.77
2019-02-14T03:52:42.776Z,17.97
2019-02-14T03:55:11.617Z,15.27
2019-02-14T03:57:40.433Z,19.00
2019-02-14T04:00:16.808Z,16.17
2019-02-14T04:02:45.391Z,16.83
2019-02-14T04:05:14.134Z,16.43
2019-02-14T04:07:42.635Z,17.03
2019-02-14T04:10:13.709Z,15.77
2019-02-14T04:12:42.179Z,16.37
2019-02-14T04:15:16.408Z,16.27
2019-02-14T04:17:44.875Z,16.60
2019-02-14T04:20:13.699Z,15.80
2019-02-14T04:22:42.304Z,16.60
2019-02-14T04:25:11.003Z,16.60
2019-02-14T04:27:39.613Z,16.63
2019-02-14T04:30:13.089Z,16.27
2019-02-14T04:32:41.562Z,16.63
2019-02-14T04:35:10.387Z,16.67
2019-02-14T04:37:38.940Z,16.20
2019-02-14T04:40:10.877Z,16.80
2019-02-14T04:42:39.420Z,16.03
2019-02-14T04:45:10.152Z,15.63
2019-02-14T04:47:38.627Z,15.40
2019-02-14T04:50:09.512Z,14.80
2019-02-14T04:52:38.090Z,15.53
2019-02-14T04:55:11.014Z,15.43
2019-02-14T04:57:39.499Z,15.53
2019-02-14T05:00:11.140Z,15.37
2019-02-14T05:02:39.605Z,15.77
2019-02-14T05:05:09.727Z,15.77
2019-02-14T05:07:38.352Z,15.70
2019-02-14T05:10:09.712Z,14.53
2019-02-14T05:12:38.229Z,15.90
2019-02-14T05:15:08.459Z,14.53
2019-02-14T05:17:36.913Z,15.87
2019-02-14T05:20:08.280Z,14.73
2019-02-14T05:22:36.781Z,15.70
2019-02-14T05:25:07.861Z,17.83
2019-02-14T05:27:36.340Z,15.00
2019-02-14T05:30:13.704Z,15.27
2019-02-14T05:32:42.171Z,15.13
2019-02-14T05:35:10.631Z,14.33
2019-02-14T05:37:39.128Z,15.57
2019-02-14T05:40:10.111Z,14.03
2019-02-14T05:42:39.245Z,14.33
2019-02-14T05:45:12.483Z,14.73
2019-02-14T05:47:40.979Z,13.80
2019-02-14T05:50:14.027Z,14.90
2019-02-14T05:52:42.629Z,14.83
2019-02-14T05:55:14.242Z,15.93
2019-02-14T05:57:42.767Z,14.13
2019-02-14T06:00:17.081Z,15.63
2019-02-14T06:02:45.536Z,15.57
2019-02-14T06:05:14.104Z,15.10
2019-02-14T06:07:42.606Z,15.67
2019-02-14T06:10:12.172Z,15.23
2019-02-14T06:12:40.700Z,15.13
2019-02-14T06:15:13.209Z,15.00
2019-02-14T06:17:41.732Z,14.77
2019-02-14T06:20:12.426Z,14.53
2019-02-14T06:22:40.888Z,14.27
2019-02-14T06:25:13.487Z,14.47
2019-02-14T06:27:42.022Z,14.43
2019-02-14T06:30:15.289Z,13.80
2019-02-14T06:32:43.764Z,14.10
2019-02-14T06:35:12.370Z,14.97
2019-02-14T06:37:40.875Z,15.00
2019-02-14T06:40:12.522Z,15.00
2019-02-14T06:42:41.059Z,16.67
2019-02-14T06:45:37.829Z,14.80
2019-02-14T06:48:06.348Z,15.60
2019-02-14T06:50:35.072Z,16.07
2019-02-14T06:53:03.824Z,15.07
2019-02-14T06:55:32.345Z,14.63
2019-02-14T06:58:00.913Z,14.67
2019-02-14T07:00:29.466Z,13.73
2019-02-14T07:02:57.952Z,14.13
2019-02-14T07:05:26.421Z,15.07
2019-02-14T07:07:57.817Z,15.80
2019-02-14T07:10:26.748Z,16.93
2019-02-14T07:12:55.309Z,15.40
2019-02-14T07:15:23.813Z,14.87
2019-02-14T07:17:52.335Z,14.57
2019-02-14T07:20:22.567Z,15.33
2019-02-14T07:22:52.776Z,14.47
2019-02-14T07:25:21.272Z,17.70
2019-02-14T07:27:49.812Z,15.40
2019-02-14T07:30:28.552Z,16.10
2019-02-14T07:32:57.022Z,17.57
2019-02-14T07:35:25.524Z,13.77
2019-02-14T07:37:54.099Z,17.33
2019-02-14T07:40:22.708Z,15.90
2019-02-14T07:42:51.197Z,15.10
2019-02-14T07:45:19.796Z,15.10
2019-02-14T07:47:48.343Z,14.53
2019-02-14T07:50:16.874Z,15.37
2019-02-14T07:52:45.369Z,14.40
2019-02-14T07:55:14.641Z,16.30
2019-02-14T07:57:43.560Z,14.07
2019-02-14T08:00:19.300Z,14.37
2019-02-14T08:02:47.849Z,15.40
2019-02-14T08:05:16.337Z,15.77
2019-02-14T08:07:44.920Z,16.47
2019-02-14T08:10:15.813Z,15.60
2019-02-14T08:12:44.281Z,17.13
2019-02-14T08:15:14.286Z,18.37
2019-02-14T08:17:42.880Z,18.50
2019-02-14T08:20:16.504Z,16.37
2019-02-14T08:22:45.051Z,18.10
2019-02-14T08:25:14.142Z,17.50
2019-02-14T08:27:42.600Z,16.37
2019-02-14T08:30:30.515Z,16.83
2019-02-14T08:32:58.989Z,17.47
2019-02-14T08:35:27.496Z,19.53
2019-02-14T08:37:56.113Z,15.93
2019-02-14T08:40:30.181Z,15.57
2019-02-14T08:42:58.876Z,16.60
2019-02-14T08:45:27.416Z,14.57
2019-02-14T08:47:55.880Z,15.03
2019-02-14T08:50:24.364Z,17.37
2019-02-14T08:52:52.900Z,14.93
2019-02-14T08:55:21.368Z,14.90
2019-02-14T08:57:49.830Z,16.27
2019-02-14T09:00:18.411Z,15.37
2019-02-14T09:02:46.943Z,11.40
2019-02-14T09:05:15.504Z,10.27
2019-02-14T09:07:44.060Z,13.00
2019-02-14T09:10:16.857Z,10.00
2019-02-14T09:12:45.402Z,9.90
2019-02-14T09:15:14.872Z,9.90
2019-02-14T09:17:43.411Z,9.87
2019-02-14T09:20:14.726Z,9.20
2019-02-14T09:22:43.288Z,9.40
2019-02-14T09:25:11.909Z,10.20
2019-02-14T09:27:40.558Z,10.23
2019-02-14T09:30:11.645Z,10.17
2019-02-14T09:32:40.347Z,9.90
2019-02-14T09:35:09.964Z,10.50
2019-02-14T09:37:38.448Z,8.30
2019-02-14T09:40:10.083Z,10.57
2019-02-14T09:42:38.551Z,8.67
2019-02-14T09:45:10.194Z,8.67
2019-02-14T09:47:41.488Z,8.80
2019-02-14T09:50:12.296Z,9.30
2019-02-14T09:52:41.599Z,9.17
2019-02-14T09:55:14.178Z,9.97
2019-02-14T09:57:42.729Z,9.27
2019-02-14T10:00:16.987Z,7.93
2019-02-14T10:02:45.589Z,9.17
2019-02-14T10:05:15.537Z,9.50
2019-02-14T10:07:44.276Z,7.63
2019-02-14T10:10:15.547Z,8.27
2019-02-14T10:12:44.122Z,8.20
2019-02-14T10:15:13.028Z,8.00
2019-02-14T10:17:41.488Z,8.53
2019-02-14T10:20:15.193Z,8.17
2019-02-14T10:22:43.810Z,7.93
2019-02-14T10:25:14.699Z,7.90
2019-02-14T10:27:43.267Z,8.53
2019-02-14T10:30:14.962Z,8.30
2019-02-14T10:32:43.430Z,9.13
2019-02-14T10:35:11.916Z,6.97
2019-02-14T10:37:40.405Z,8.80
2019-02-14T10:40:13.884Z,7.17
2019-02-14T10:42:42.423Z,8.43
2019-02-14T10:45:16.044Z,9.10
2019-02-14T10:47:46.128Z,7.90
2019-02-14T10:50:14.617Z,8.80
2019-02-14T10:52:43.237Z,7.60
2019-02-14T10:55:13.972Z,8.40
2019-02-14T10:57:42.516Z,8.57
2019-02-14T11:00:16.494Z,8.23
2019-02-14T11:02:45.206Z,8.83
2019-02-14T11:05:15.216Z,7.50
2019-02-14T11:07:43.794Z,9.53
2019-02-14T11:10:14.113Z,8.50
2019-02-14T11:12:43.450Z,8.73
2019-02-14T11:15:20.694Z,8.77
2019-02-14T11:17:49.480Z,8.07
2019-02-14T11:20:18.276Z,8.40
2019-02-14T11:22:48.854Z,6.60
2019-02-14T11:25:29.268Z,7.13
2019-02-14T11:27:57.764Z,7.03
2019-02-14T11:30:26.336Z,8.63
2019-02-14T11:32:55.034Z,7.43
2019-02-14T11:35:23.553Z,8.83
2019-02-14T11:37:52.060Z,7.13
2019-02-14T11:40:20.638Z,6.90
2019-02-14T11:42:49.259Z,6.43
2019-02-14T11:45:20.228Z,7.70
2019-02-14T11:47:48.854Z,5.47
2019-02-14T11:50:17.388Z,5.73
2019-02-14T11:52:45.884Z,7.37
2019-02-14T11:55:14.369Z,7.50
2019-02-14T11:57:42.966Z,6.87
2019-02-14T12:00:16.176Z,6.93
2019-02-14T12:02:44.725Z,5.43
2019-02-14T12:05:13.285Z,4.40
2019-02-14T12:07:41.893Z,5.40
2019-02-14T12:10:13.537Z,4.60
2019-02-14T12:12:41.519Z,4.07
2019-02-14T12:15:11.661Z,5.77
2019-02-14T12:17:40.202Z,4.00
2019-02-14T12:20:13.028Z,4.60
2019-02-14T12:22:46.869Z,7.73
2019-02-14T12:25:24.438Z,5.40
2019-02-14T12:27:52.959Z,4.30
2019-02-14T12:30:21.804Z,4.23
2019-02-14T12:32:50.409Z,5.60
2019-02-14T12:35:18.886Z,5.23
2019-02-14T12:37:47.421Z,5.43
2019-02-14T12:40:16.044Z,5.40
2019-02-14T12:42:44.504Z,4.67
2019-02-14T12:45:21.683Z,4.80
2019-02-14T12:47:46.585Z,3.50
2019-02-14T12:50:15.802Z,4.03
2019-02-14T12:52:44.365Z,3.50
2019-02-14T12:55:13.089Z,4.43
2019-02-14T12:57:41.633Z,7.20
2019-02-14T13:00:13.331Z,4.20
2019-02-14T13:02:41.934Z,4.57
2019-02-14T13:05:10.409Z,6.67
2019-02-14T13:07:38.926Z,4.60
2019-02-14T13:10:10.816Z,5.23
2019-02-14T13:12:39.352Z,5.27
2019-02-14T13:15:12.660Z,5.70
2019-02-14T13:17:42.819Z,4.80
2019-02-14T13:20:11.410Z,5.80
2019-02-14T13:22:41.738Z,6.17
2019-02-14T13:25:11.967Z,4.27
2019-02-14T13:27:40.426Z,4.67
2019-02-14T13:30:14.802Z,4.53
2019-02-14T13:32:43.411Z,5.63
2019-02-14T13:35:11.880Z,4.43
2019-02-14T13:37:41.948Z,4.07
2019-02-14T13:40:10.687Z,4.90
2019-02-14T13:42:39.203Z,4.23
2019-02-14T13:45:13.765Z,4.10
2019-02-14T13:47:42.329Z,5.47
2019-02-14T13:50:12.465Z,3.70
2019-02-14T13:52:41.387Z,4.33
2019-02-14T13:55:10.885Z,3.77
2019-02-14T13:57:39.805Z,4.63
2019-02-14T14:00:16.962Z,6.23
2019-02-14T14:02:45.456Z,4.10
2019-02-14T14:05:13.922Z,6.93
2019-02-14T14:07:46.829Z,4.87
2019-02-14T14:10:15.356Z,4.67
2019-02-14T14:12:43.968Z,4.63
2019-02-14T14:15:13.951Z,5.30
2019-02-14T14:17:42.751Z,4.23
2019-02-14T14:20:11.474Z,4.47
2019-02-14T14:22:40.221Z,3.97
2019-02-14T14:25:10.979Z,4.80
2019-02-14T14:27:39.508Z,3.77
2019-02-14T14:30:10.545Z,3.70
2019-02-14T14:32:39.089Z,4.60
2019-02-14T14:35:10.962Z,5.13
2019-02-14T14:37:40.185Z,4.17
2019-02-14T14:40:20.350Z,3.43
2019-02-14T14:42:50.870Z,3.93
2019-02-14T14:45:27.509Z,4.20
2019-02-14T14:47:57.604Z,5.50
2019-02-14T14:50:26.083Z,4.90
2019-02-14T14:52:54.635Z,4.47
2019-02-14T14:55:26.503Z,4.47
2019-02-14T14:57:55.015Z,3.90
2019-02-14T15:00:26.424Z,4.10
2019-02-14T15:02:55.030Z,4.73
2019-02-14T15:05:23.495Z,5.13
2019-02-14T15:07:52.048Z,4.10
2019-02-14T15:10:20.699Z,4.67
2019-02-14T15:12:49.181Z,4.63
2019-02-14T15:15:17.656Z,9.43
2019-02-14T15:17:46.109Z,6.00
2019-02-14T15:20:14.764Z,4.60
2019-02-14T15:22:43.256Z,6.10
2019-02-14T15:25:11.758Z,4.63
2019-02-14T15:27:40.321Z,5.30
2019-02-14T15:30:09.249Z,4.60
2019-02-14T15:32:37.784Z,4.67
2019-02-14T15:35:08.589Z,4.00
2019-02-14T15:37:37.053Z,5.87
2019-02-14T15:40:09.591Z,4.23
2019-02-14T15:42:40.133Z,3.50
2019-02-14T15:45:09.049Z,5.27
2019-02-14T15:47:37.531Z,3.77
2019-02-14T15:50:08.970Z,3.53
2019-02-14T15:52:37.732Z,3.73
2019-02-14T15:55:07.438Z,5.07
2019-02-14T15:57:35.984Z,4.17
2019-02-14T16:00:10.634Z,4.20
2019-02-14T16:02:39.601Z,5.70
2019-02-14T16:05:08.590Z,4.83
2019-02-14T16:07:38.982Z,4.43
2019-02-14T16:10:17.655Z,4.43
2019-02-14T16:12:41.068Z,5.00
2019-02-14T16:15:10.115Z,8.57
2019-02-14T16:17:38.594Z,7.30
2019-02-14T16:20:08.376Z,6.57
2019-02-14T16:22:36.927Z,7.73
2019-02-14T16:25:11.257Z,5.57
2019-02-14T16:27:40.257Z,9.53
2019-02-14T16:30:11.175Z,7.67
2019-02-14T16:32:39.714Z,7.40
2019-02-14T16:35:08.985Z,10.20
2019-02-14T16:37:39.109Z,7.47
2019-02-14T16:40:09.823Z,9.07
2019-02-14T16:42:38.414Z,7.73
2019-02-14T16:45:08.821Z,9.67
2019-02-14T16:47:37.295Z,9.53
2019-02-14T16:50:08.604Z,7.77
2019-02-14T16:52:37.376Z,9.70
2019-02-14T16:55:07.128Z,11.03
2019-02-14T16:57:35.599Z,9.63
2019-02-14T17:00:05.687Z,7.77
2019-02-14T17:02:34.226Z,9.23
2019-02-14T17:05:02.708Z,10.27
2019-02-14T17:07:31.206Z,10.70
2019-02-14T17:09:59.674Z,10.10
2019-02-14T17:12:28.300Z,8.93
2019-02-14T17:14:57.085Z,10.73
2019-02-14T17:17:28.057Z,8.87
2019-02-14T17:19:56.533Z,8.93
2019-02-14T17:22:25.471Z,11.53
2019-02-14T17:24:53.974Z,10.57
2019-02-14T17:27:23.112Z,10.60
2019-02-14T17:29:51.632Z,14.07
2019-02-14T17:32:20.223Z,12.20
2019-02-14T17:34:48.694Z,12.00
2019-02-14T17:37:17.214Z,11.87
2019-02-14T17:39:45.734Z,13.50
2019-02-14T17:42:14.269Z,19.10
2019-02-14T17:44:42.769Z,12.50
2019-02-14T17:47:11.304Z,12.03
2019-02-14T17:49:39.872Z,12.53
2019-02-14T17:52:08.433Z,12.80
2019-02-14T17:54:37.001Z,15.07
2019-02-14T17:57:05.497Z,14.70
2019-02-14T17:59:35.527Z,15.00
2019-02-14T18:02:04.002Z,13.93
2019-02-14T18:04:32.456Z,14.53
2019-02-14T18:07:00.963Z,13.70
2019-02-14T18:09:29.496Z,16.97
2019-02-14T18:11:58.028Z,14.33
2019-02-14T18:14:26.588Z,15.23
2019-02-14T18:16:55.132Z,15.63
2019-02-14T18:19:23.617Z,14.77
2019-02-14T18:21:52.245Z,13.83
2019-02-14T18:24:20.848Z,17.63
2019-02-14T18:26:49.357Z,20.23
2019-02-14T18:29:17.817Z,15.40
2019-02-14T18:31:46.300Z,15.00
2019-02-14T18:34:14.780Z,16.40
2019-02-14T18:36:43.273Z,16.87
2019-02-14T18:39:11.798Z,16.10
2019-02-14T18:41:40.375Z,18.50
2019-02-14T18:44:08.949Z,13.00
2019-02-14T18:46:37.528Z,15.67
2019-02-14T18:49:06.127Z,16.73
2019-02-14T18:51:34.606Z,15.97
2019-02-14T18:54:03.081Z,14.13
2019-02-14T18:56:31.637Z,13.70
2019-02-14T18:59:00.120Z,13.50
2019-02-14T19:01:28.652Z,14.03
2019-02-14T19:03:57.160Z,12.47
2019-02-14T19:06:25.612Z,14.00
2019-02-14T19:08:54.209Z,14.17
2019-02-14T19:11:23.729Z,16.10
2019-02-14T19:13:52.232Z,18.70
2019-02-14T19:16:20.771Z,16.33
2019-02-14T19:18:49.251Z,13.63
2019-02-14T19:21:17.804Z,17.87
2019-02-14T19:23:46.401Z,17.97
2019-02-14T19:26:16.507Z,17.17
2019-02-14T19:28:44.965Z,18.37
2019-02-14T19:31:13.481Z,23.73
2019-02-14T19:33:41.974Z,16.40
2019-02-14T19:36:10.524Z,21.23
2019-02-14T19:38:40.745Z,17.37
2019-02-14T19:41:09.277Z,18.43
2019-02-14T19:43:37.730Z,15.60
2019-02-14T19:46:06.289Z,15.10
2019-02-14T19:48:34.825Z,18.37
2019-02-14T19:51:15.105Z,15.97
2019-02-14T19:53:43.376Z,14.80
2019-02-14T19:56:11.910Z,17.30
2019-02-14T19:58:40.418Z,16.40
2019-02-14T20:01:09.111Z,16.40
2019-02-14T20:03:37.649Z,16.03
2019-02-14T20:06:06.164Z,17.07
2019-02-14T20:08:34.772Z,15.80
2019-02-14T20:11:03.405Z,15.37
2019-02-14T20:13:32.008Z,14.43
2019-02-14T20:16:00.770Z,14.47
2019-02-14T20:18:29.232Z,17.07
2019-02-14T20:20:57.703Z,18.67
2019-02-14T20:23:26.199Z,15.67
2019-02-14T20:25:54.664Z,16.53
2019-02-14T20:28:23.167Z,17.13
2019-02-14T20:30:51.821Z,17.87
2019-02-14T20:33:20.329Z,19.30
2019-02-14T20:35:48.932Z,15.73
2019-02-14T20:38:17.388Z,16.00
2019-02-14T20:40:45.917Z,16.70
2019-02-14T20:43:14.432Z,13.97
2019-02-14T20:45:43.009Z,13.50
2019-02-14T20:48:11.518Z,18.17
2019-02-14T20:50:40.001Z,17.63
2019-02-14T20:53:08.559Z,16.70
2019-02-14T20:55:37.038Z,15.73
2019-02-14T20:58:05.516Z,18.10
2019-02-14T21:00:36.877Z,19.03
2019-02-14T21:03:05.581Z,19.13
2019-02-14T21:05:34.176Z,19.10
2019-02-14T21:08:02.808Z,18.97
2019-02-14T21:10:32.089Z,16.37
2019-02-14T21:13:00.617Z,16.37
2019-02-14T21:15:29.167Z,18.30
2019-02-14T21:17:57.720Z,20.17
2019-02-14T21:20:26.269Z,15.90
2019-02-14T21:22:54.846Z,22.27
2019-02-14T21:25:24.164Z,17.33
2019-02-14T21:27:52.749Z,17.53
2019-02-14T21:30:21.378Z,16.30
2019-02-14T21:32:49.981Z,15.90
2019-02-14T21:35:18.576Z,15.77
2019-02-14T21:37:47.153Z,18.10
2019-02-14T21:40:17.227Z,22.17
2019-02-14T21:42:45.782Z,17.17
2019-02-14T21:45:17.781Z,20.60
2019-02-14T21:47:46.374Z,17.10
2019-02-14T21:50:15.953Z,18.37
2019-02-14T21:52:44.513Z,19.03
2019-02-14T21:55:13.972Z,18.73
2019-02-14T21:57:42.584Z,17.40
2019-02-14T22:00:16.725Z,18.63
2019-02-14T22:02:45.742Z,17.97
2019-02-14T22:05:14.281Z,18.90
2019-02-14T22:07:44.478Z,15.77
2019-02-14T22:10:13.955Z,20.43
2019-02-14T22:12:43.516Z,15.07
2019-02-14T22:15:15.914Z,18.03
2019-02-14T22:17:44.902Z,21.80
2019-02-14T22:20:13.535Z,17.87
2019-02-14T22:22:42.028Z,17.10
2019-02-14T22:25:11.320Z,19.87
2019-02-14T22:27:39.888Z,21.67
2019-02-14T22:30:11.856Z,18.17
2019-02-14T22:32:40.321Z,18.60
2019-02-14T22:35:08.925Z,16.30
2019-02-14T22:37:37.422Z,19.70
2019-02-14T22:40:11.279Z,18.00
2019-02-14T22:42:46.652Z,18.40
2019-02-14T22:45:14.785Z,16.77
2019-02-14T22:47:44.498Z,17.73
2019-02-14T22:50:13.708Z,19.07
2019-02-14T22:52:42.403Z,15.73
2019-02-14T22:55:12.753Z,13.40
2019-02-14T22:57:41.329Z,18.10
2019-02-14T23:00:23.409Z,17.30
2019-02-14T23:02:52.031Z,16.87
2019-02-14T23:05:20.499Z,16.43
2019-02-14T23:07:49.043Z,20.27
2019-02-14T23:10:17.544Z,20.03
2019-02-14T23:12:46.017Z,15.10
2019-02-14T23:15:14.824Z,19.10
2019-02-14T23:17:43.530Z,18.03
2019-02-14T23:20:13.544Z,15.83
2019-02-14T23:22:42.018Z,18.27
2019-02-14T23:25:10.612Z,15.63
2019-02-14T23:27:39.149Z,15.03
2019-02-14T23:30:12.660Z,13.40
2019-02-14T23:32:41.157Z,15.73
2019-02-14T23:35:09.765Z,16.73
2019-02-14T23:37:38.236Z,13.70
2019-02-14T23:40:07.534Z,15.03
2019-02-14T23:42:36.072Z,16.47
2019-02-14T23:45:07.042Z,14.80
2019-02-14T23:47:35.520Z,15.97
2019-02-14T23:50:08.276Z,12.17
2019-02-14T23:52:36.754Z,14.13
2019-02-14T23:55:07.337Z,13.30
2019-02-14T23:57:36.172Z,11.80
